createdAt,value
2018-09-09T00:01:46.541Z,99553.92
2018-09-09T00:04:15.545Z,99555.45
2018-09-09T00:06:44.553Z,99557.11
2018-09-09T00:09:17.804Z,99557.21
2018-09-09T00:11:47.808Z,99559.98
2018-09-09T00:14:16.705Z,99562.34
2018-09-09T00:16:45.703Z,99554.86
2018-09-09T00:19:14.564Z,99559.63
2018-09-09T00:21:43.456Z,99553.67
2018-09-09T00:24:12.349Z,99551.30
2018-09-09T00:26:41.351Z,99564.25
2018-09-09T00:29:10.430Z,99558.03
2018-09-09T00:31:39.329Z,99556.34
2018-09-09T00:34:08.165Z,99552.80
2018-09-09T00:36:37.072Z,99558.53
2018-09-09T00:39:07.798Z,99557.53
2018-09-09T00:41:36.746Z,99557.03
2018-09-09T00:44:05.660Z,99556.34
2018-09-09T00:46:37.659Z,99562.22
2018-09-09T00:49:11.747Z,99560.31
2018-09-09T00:51:45.655Z,99560.63
2018-09-09T00:54:14.569Z,99561.97
2018-09-09T00:56:43.596Z,99551.40
2018-09-09T00:59:12.886Z,99557.28
2018-09-09T01:01:41.791Z,99554.53
2018-09-09T01:04:10.802Z,99553.19
2018-09-09T01:06:39.687Z,99550.16
2018-09-09T01:09:10.038Z,99550.50
2018-09-09T01:11:38.905Z,99547.78
2018-09-09T01:14:07.903Z,99545.03
2018-09-09T01:16:36.887Z,99543.31
2018-09-09T01:19:05.891Z,99543.99
2018-09-09T01:21:34.703Z,99545.50
2018-09-09T01:24:03.592Z,99548.72
2018-09-09T01:26:32.461Z,99548.53
2018-09-09T01:29:01.501Z,99545.44
2018-09-09T01:31:30.373Z,99552.66
2018-09-09T01:34:02.895Z,99549.47
2018-09-09T01:36:31.741Z,99547.59
2018-09-09T01:39:00.610Z,99549.63
2018-09-09T01:41:29.931Z,99551.97
2018-09-09T01:43:58.847Z,99561.34
2018-09-09T01:46:27.767Z,99556.66
2018-09-09T01:48:56.938Z,99559.66
2018-09-09T01:51:25.994Z,99559.66
2018-09-09T01:53:54.823Z,99559.16
2018-09-09T01:56:23.658Z,99562.34
2018-09-09T01:58:52.560Z,99556.97
2018-09-09T02:01:21.497Z,99558.43
2018-09-09T02:03:50.384Z,99559.00
2018-09-09T02:06:19.257Z,99558.81
2018-09-09T02:08:52.388Z,99559.93
2018-09-09T02:11:21.396Z,99569.49
2018-09-09T02:13:50.498Z,99566.66
2018-09-09T02:16:19.380Z,99571.49
2018-09-09T02:18:48.381Z,99575.18
2018-09-09T02:21:17.307Z,99570.23
2018-09-09T02:23:46.162Z,99575.92
2018-09-09T02:26:14.969Z,99578.16
2018-09-09T02:28:43.828Z,99576.62
2018-09-09T02:31:12.768Z,99578.50
2018-09-09T02:33:42.829Z,99583.64
2018-09-09T02:36:11.684Z,99580.95
2018-09-09T02:38:40.906Z,99581.73
2018-09-09T02:41:09.888Z,99580.38
2018-09-09T02:43:38.866Z,99585.06
2018-09-09T02:46:08.037Z,99583.48
2018-09-09T02:48:36.936Z,99584.36
2018-09-09T02:51:05.790Z,99585.36
2018-09-09T02:53:34.703Z,99583.52
2018-09-09T02:56:08.379Z,99585.36
2018-09-09T02:58:37.532Z,99588.55
2018-09-09T03:01:06.722Z,99591.61
2018-09-09T03:03:35.648Z,99589.58
2018-09-09T03:06:05.003Z,99588.08
2018-09-09T03:08:33.841Z,99591.42
2018-09-09T03:11:08.108Z,99590.37
2018-09-09T03:13:37.370Z,99586.12
2018-09-09T03:16:06.381Z,99591.03
2018-09-09T03:18:35.318Z,99587.61
2018-09-09T03:21:04.161Z,99575.03
2018-09-09T03:23:36.190Z,99584.23
2018-09-09T03:26:05.204Z,99580.70
2018-09-09T03:28:34.344Z,99586.38
2018-09-09T03:31:03.325Z,99586.52
2018-09-09T03:33:32.277Z,99586.67
2018-09-09T03:36:01.175Z,99592.89
2018-09-09T03:38:30.066Z,99584.10
2018-09-09T03:40:58.987Z,99587.52
2018-09-09T03:43:27.910Z,99590.13
2018-09-09T03:45:56.964Z,99592.81
2018-09-09T03:48:26.024Z,99591.47
2018-09-09T03:50:54.895Z,99589.77
2018-09-09T03:53:24.944Z,99598.88
2018-09-09T03:55:54.021Z,99599.60
2018-09-09T03:58:22.819Z,99599.38
2018-09-09T04:00:52.395Z,99605.31
2018-09-09T04:03:21.281Z,99607.20
2018-09-09T04:05:50.090Z,99605.37
2018-09-09T04:08:19.508Z,99617.80
2018-09-09T04:10:48.517Z,99615.20
2018-09-09T04:13:17.361Z,99613.20
2018-09-09T04:15:46.572Z,99613.20
2018-09-09T04:18:16.755Z,99613.25
2018-09-09T04:20:45.739Z,99619.13
2018-09-09T04:23:15.125Z,99613.83
2018-09-09T04:25:44.033Z,99616.39
2018-09-09T04:28:12.931Z,99621.86
2018-09-09T04:30:42.139Z,99615.22
2018-09-09T04:33:11.077Z,99618.30
2018-09-09T04:35:40.067Z,99616.08
2018-09-09T04:38:09.100Z,99623.34
2018-09-09T04:40:38.012Z,99618.92
2018-09-09T04:43:06.850Z,99615.69
2018-09-09T04:45:36.097Z,99614.42
2018-09-09T04:48:04.995Z,99621.87
2018-09-09T04:50:34.009Z,99615.84
2018-09-09T04:53:02.908Z,99618.66
2018-09-09T04:55:31.809Z,99624.17
2018-09-09T04:58:00.685Z,99622.39
2018-09-09T05:00:29.704Z,99631.53
2018-09-09T05:02:58.580Z,99624.05
2018-09-09T05:05:27.559Z,99630.19
2018-09-09T05:07:56.588Z,99633.75
2018-09-09T05:10:25.430Z,99638.66
2018-09-09T05:12:54.401Z,99638.22
2018-09-09T05:15:23.474Z,99641.25
2018-09-09T05:17:52.421Z,99634.00
2018-09-09T05:20:21.268Z,99637.24
2018-09-09T05:22:50.117Z,99638.94
2018-09-09T05:25:19.048Z,99629.33
2018-09-09T05:27:48.000Z,99638.99
2018-09-09T05:30:17.368Z,99637.98
2018-09-09T05:32:46.262Z,99635.83
2018-09-09T05:35:15.199Z,99634.03
2018-09-09T05:37:44.181Z,99635.80
2018-09-09T05:40:13.188Z,99637.52
2018-09-09T05:42:41.995Z,99638.70
2018-09-09T05:45:11.665Z,99632.58
2018-09-09T05:47:40.596Z,99636.30
2018-09-09T05:50:09.640Z,99638.04
2018-09-09T05:52:38.549Z,99646.66
2018-09-09T05:55:07.537Z,99644.52
2018-09-09T05:57:36.345Z,99644.53
2018-09-09T06:00:05.447Z,99647.96
2018-09-09T06:02:34.490Z,99657.57
2018-09-09T06:05:06.657Z,99652.18
2018-09-09T06:07:35.521Z,99658.48
2018-09-09T06:10:04.473Z,99654.45
2018-09-09T06:12:33.401Z,99657.66
2018-09-09T06:15:02.381Z,99650.14
2018-09-09T06:17:31.348Z,99649.68
2018-09-09T06:20:00.588Z,99664.70
2018-09-09T06:22:29.472Z,99656.61
2018-09-09T06:24:59.352Z,99667.64
2018-09-09T06:27:28.258Z,99663.14
2018-09-09T06:29:57.292Z,99665.73
2018-09-09T06:32:26.290Z,99665.56
2018-09-09T06:34:55.306Z,99663.24
2018-09-09T06:37:25.296Z,99672.39
2018-09-09T06:39:54.223Z,99666.49
2018-09-09T06:42:23.466Z,99673.11
2018-09-09T06:44:52.357Z,99665.55
2018-09-09T06:47:21.160Z,99670.61
2018-09-09T06:49:50.511Z,99673.17
2018-09-09T06:52:19.358Z,99669.16
2018-09-09T06:54:48.205Z,99670.34
2018-09-09T06:57:17.090Z,99673.23
2018-09-09T06:59:46.022Z,99670.88
2018-09-09T07:02:18.482Z,99681.70
2018-09-09T07:04:47.408Z,99671.25
2018-09-09T07:07:16.363Z,99674.97
2018-09-09T07:09:45.344Z,99669.38
2018-09-09T07:12:14.356Z,99673.77
2018-09-09T07:14:43.175Z,99673.28
2018-09-09T07:17:12.502Z,99668.09
2018-09-09T07:19:42.332Z,99673.98
2018-09-09T07:22:11.287Z,99670.09
2018-09-09T07:24:40.926Z,99671.80
2018-09-09T07:27:09.858Z,99669.92
2018-09-09T07:29:38.837Z,99672.63
2018-09-09T07:32:08.248Z,99666.17
2018-09-09T07:34:37.167Z,99670.55
2018-09-09T07:37:06.043Z,99669.67
2018-09-09T07:39:35.063Z,99668.69
2018-09-09T07:42:04.466Z,99675.09
2018-09-09T07:44:33.423Z,99674.08
2018-09-09T07:47:02.729Z,99676.62
2018-09-09T07:49:31.717Z,99666.42
2018-09-09T07:52:00.612Z,99666.06
2018-09-09T07:54:29.888Z,99659.53
2018-09-09T07:56:59.776Z,99651.25
2018-09-09T07:59:28.711Z,99668.64
2018-09-09T08:01:58.103Z,99655.55
2018-09-09T08:04:26.942Z,99667.88
2018-09-09T08:06:55.833Z,99653.58
2018-09-09T08:09:24.983Z,99653.03
2018-09-09T08:11:53.962Z,99650.52
2018-09-09T08:14:22.890Z,99653.73
2018-09-09T08:16:51.896Z,99649.80
2018-09-09T08:19:21.161Z,99647.16
2018-09-09T08:21:49.979Z,99643.52
2018-09-09T08:24:19.824Z,99640.56
2018-09-09T08:26:48.677Z,99633.77
2018-09-09T08:29:17.530Z,99631.49
2018-09-09T08:31:46.825Z,99641.72
2018-09-09T08:34:15.612Z,99640.14
2018-09-09T08:36:45.676Z,99639.09
2018-09-09T08:39:14.730Z,99644.14
2018-09-09T08:41:43.663Z,99645.68
2018-09-09T08:44:12.657Z,99645.48
2018-09-09T08:46:41.817Z,99636.51
2018-09-09T08:49:10.626Z,99634.75
2018-09-09T08:51:39.447Z,99648.50
2018-09-09T08:54:08.490Z,99635.07
2018-09-09T08:56:37.282Z,99629.91
2018-09-09T08:59:06.342Z,99632.93
2018-09-09T09:01:35.720Z,99626.66
2018-09-09T09:04:04.622Z,99616.67
2018-09-09T09:06:33.545Z,99604.13
2018-09-09T09:09:02.477Z,99604.86
2018-09-09T09:11:31.408Z,99605.30
2018-09-09T09:14:00.317Z,99602.67
2018-09-09T09:16:29.293Z,99601.95
2018-09-09T09:34:58.876Z,99572.09
2018-09-09T09:37:28.126Z,99569.16
2018-09-09T09:39:57.093Z,99561.52
2018-09-09T09:42:26.093Z,99561.64
2018-09-09T09:44:55.488Z,99568.75
2018-09-09T09:47:24.537Z,99566.02
2018-09-09T09:49:56.686Z,99564.02
2018-09-09T09:52:25.615Z,99575.77
2018-09-09T09:54:54.516Z,99566.69
2018-09-09T09:57:23.492Z,99559.83
2018-09-09T09:59:52.483Z,99548.69
2018-09-09T10:02:21.352Z,99547.44
2018-09-09T10:04:53.486Z,99547.80
2018-09-09T10:07:22.332Z,99545.50
2018-09-09T10:09:51.194Z,99541.98
2018-09-09T10:12:20.136Z,99550.83
2018-09-09T10:14:49.080Z,99540.88
2018-09-09T10:17:18.941Z,99544.37
2018-09-09T10:19:47.870Z,99537.89
2018-09-09T10:22:16.955Z,99542.11
2018-09-09T10:24:45.821Z,99537.72
2018-09-09T10:27:15.320Z,99533.67
2018-09-09T10:29:44.318Z,99539.42
2018-09-09T10:32:13.225Z,99533.44
2018-09-09T10:35:07.319Z,99526.94
2018-09-09T10:37:56.911Z,99533.92
2018-09-09T10:40:26.252Z,99529.23
2018-09-09T10:42:55.317Z,99537.13
2018-09-09T10:45:24.187Z,99539.80
2018-09-09T10:47:53.352Z,99522.20
2018-09-09T10:50:22.198Z,99524.26
2018-09-09T10:52:51.231Z,99514.43
2018-09-09T10:55:20.258Z,99517.28
2018-09-09T10:57:49.092Z,99519.23
2018-09-09T11:00:18.081Z,99511.98
2018-09-09T11:02:48.506Z,99507.36
2018-09-09T11:05:17.429Z,99512.34
2018-09-09T11:07:46.309Z,99509.83
2018-09-09T11:10:15.307Z,99503.24
2018-09-09T11:12:44.152Z,99506.56
2018-09-09T11:15:13.104Z,99500.30
2018-09-09T11:17:45.109Z,99498.42
2018-09-09T11:20:14.012Z,99499.38
2018-09-09T11:22:42.928Z,99502.62
2018-09-09T11:25:12.861Z,99498.72
2018-09-09T11:27:41.736Z,99495.36
2018-09-09T11:30:10.809Z,99491.55
2018-09-09T11:32:42.636Z,99487.72
2018-09-09T11:35:11.522Z,99479.62
2018-09-09T11:37:40.325Z,99485.98
2018-09-09T11:40:09.413Z,99479.02
2018-09-09T11:42:38.429Z,99471.07
2018-09-09T11:45:07.353Z,99472.21
2018-09-09T11:47:36.374Z,99465.20
2018-09-09T11:50:05.448Z,99472.88
2018-09-09T11:52:34.489Z,99467.42
2018-09-09T11:55:03.427Z,99458.31
2018-09-09T11:57:32.468Z,99462.04
2018-09-09T12:00:01.399Z,99458.58
2018-09-09T12:02:31.366Z,99461.75
2018-09-09T12:05:00.342Z,99458.39
2018-09-09T12:07:29.332Z,99458.50
2018-09-09T12:10:01.831Z,99451.69
2018-09-09T12:12:30.589Z,99454.83
2018-09-09T12:14:59.895Z,99451.99
2018-09-09T12:17:29.020Z,99445.70
2018-09-09T12:19:58.075Z,99440.77
2018-09-09T12:22:27.098Z,99437.84
2018-09-09T12:24:56.035Z,99437.00
2018-09-09T12:27:24.961Z,99432.47
2018-09-09T12:29:53.806Z,99437.52
2018-09-09T12:32:22.912Z,99440.48
2018-09-09T12:34:51.632Z,99434.08
2018-09-09T12:37:20.714Z,99432.06
2018-09-09T12:39:50.128Z,99421.35
2018-09-09T12:42:19.136Z,99427.47
2018-09-09T12:44:58.118Z,99427.36
2018-09-09T12:47:32.115Z,99426.44
2018-09-09T12:50:01.712Z,99427.67
2018-09-09T12:52:30.672Z,99430.61
2018-09-09T12:54:59.745Z,99431.72
2018-09-09T12:57:29.702Z,99423.05
2018-09-09T12:59:58.639Z,99417.09
2018-09-09T13:02:27.816Z,99429.75
2018-09-09T13:04:58.382Z,99422.75
2018-09-09T13:07:27.503Z,99416.34
2018-09-09T13:09:56.270Z,99412.27
2018-09-09T13:12:28.143Z,99411.11
2018-09-09T13:14:57.077Z,99402.00
2018-09-09T13:17:26.014Z,99406.70
2018-09-09T13:20:06.433Z,99406.92
2018-09-09T13:22:35.349Z,99401.06
2018-09-09T13:25:04.298Z,99392.13
2018-09-09T13:27:33.725Z,99389.63
2018-09-09T13:30:02.614Z,99393.71
2018-09-09T13:32:31.532Z,99403.45
2018-09-09T13:35:00.914Z,99401.03
2018-09-09T13:37:29.946Z,99401.13
2018-09-09T13:39:59.892Z,99404.41
2018-09-09T13:42:29.278Z,99396.10
2018-09-09T13:44:58.724Z,99398.11
2018-09-09T13:47:27.636Z,99398.08
2018-09-09T13:49:56.739Z,99392.92
2018-09-09T13:52:25.712Z,99395.61
2018-09-09T13:54:54.728Z,99394.33
2018-09-09T13:57:23.965Z,99392.81
2018-09-09T13:59:52.828Z,99388.50
2018-09-09T14:02:21.805Z,99397.80
2018-09-09T14:04:51.079Z,99391.91
2018-09-09T14:07:20.053Z,99388.88
2018-09-09T14:09:49.070Z,99388.70
2018-09-09T14:12:18.366Z,99398.17
2018-09-09T14:14:47.253Z,99387.49
2018-09-09T14:17:16.176Z,99388.20
2018-09-09T14:19:45.638Z,99386.52
2018-09-09T14:22:18.274Z,99389.70
2018-09-09T14:24:47.533Z,99406.30
2018-09-09T14:27:16.392Z,99397.81
2018-09-09T14:29:45.970Z,99393.71
2018-09-09T14:32:14.857Z,99385.84
2018-09-09T14:34:43.817Z,99390.80
2018-09-09T14:37:13.122Z,99392.40
2018-09-09T14:39:42.493Z,99400.48
2018-09-09T14:42:11.602Z,99400.90
2018-09-09T14:44:40.438Z,99409.95
2018-09-09T14:47:09.579Z,99424.20
2018-09-09T14:49:38.487Z,99400.31
2018-09-09T14:52:07.529Z,99411.95
2018-09-09T14:54:37.523Z,99423.70
2018-09-09T14:57:09.480Z,99421.48
2018-09-09T14:59:38.691Z,99425.15
2018-09-09T15:02:07.696Z,99433.38
2018-09-09T15:04:36.693Z,99429.50
2018-09-09T15:07:05.914Z,99429.59
2018-09-09T15:09:34.874Z,99440.56
2018-09-09T15:12:04.634Z,99443.99
2018-09-09T15:14:33.594Z,99435.30
2018-09-09T15:17:02.428Z,99447.86
2018-09-09T15:19:31.384Z,99447.41
2018-09-09T15:22:00.340Z,99451.22
2018-09-09T15:24:29.900Z,99448.56
2018-09-09T15:26:59.827Z,99452.01
2018-09-09T15:29:28.886Z,99450.44
2018-09-09T15:31:57.758Z,99453.20
2018-09-09T15:34:27.183Z,99450.23
2018-09-09T15:36:56.952Z,99458.71
2018-09-09T15:39:25.963Z,99449.92
2018-09-09T15:41:55.315Z,99442.33
2018-09-09T15:44:24.226Z,99446.09
2018-09-09T15:46:56.986Z,99450.12
2018-09-09T15:49:29.614Z,99450.59
2018-09-09T15:51:58.897Z,99451.17
2018-09-09T15:54:27.789Z,99451.98
2018-09-09T15:56:56.617Z,99456.72
2018-09-09T15:59:25.582Z,99453.31
2018-09-09T16:01:55.475Z,99456.45
2018-09-09T16:08:07.158Z,99462.20
2018-09-09T16:10:37.248Z,99468.27
2018-09-09T16:13:07.112Z,99467.04
2018-09-09T16:15:36.022Z,99464.72
2018-09-09T16:18:05.359Z,99464.84
2018-09-09T16:20:34.207Z,99468.86
2018-09-09T16:23:03.192Z,99470.85
2018-09-09T16:25:32.429Z,99459.78
2018-09-09T16:28:01.354Z,99478.98
2018-09-09T16:30:30.328Z,99481.25
2018-09-09T16:32:59.281Z,99480.52
2018-09-09T16:35:28.160Z,99485.06
2018-09-09T16:37:57.033Z,99484.33
2018-09-09T16:40:26.092Z,99491.88
2018-09-09T16:42:55.131Z,99488.55
2018-09-09T16:45:24.109Z,99493.41
2018-09-09T16:47:53.457Z,99499.79
2018-09-09T16:50:23.395Z,99499.19
2018-09-09T16:52:52.258Z,99490.94
2018-09-09T16:55:37.268Z,99502.45
2018-09-09T16:58:06.363Z,99505.27
2018-09-09T17:00:35.314Z,99503.39
2018-09-09T17:03:04.821Z,99510.03
2018-09-09T17:05:44.567Z,99513.00
2018-09-09T17:08:13.833Z,99514.61
2018-09-09T17:10:42.829Z,99520.96
2018-09-09T17:13:11.804Z,99525.22
2018-09-09T17:15:40.675Z,99521.52
2018-09-09T17:18:09.672Z,99533.61
2018-09-09T17:20:38.848Z,99531.78
2018-09-09T17:23:07.960Z,99536.06
2018-09-09T17:25:36.926Z,99544.51
2018-09-09T17:28:05.992Z,99540.16
2018-09-09T17:30:34.963Z,99547.80
2018-09-09T17:33:03.959Z,99559.64
2018-09-09T17:35:32.821Z,99557.77
2018-09-09T17:38:01.873Z,99563.36
2018-09-09T17:40:30.838Z,99560.50
2018-09-09T17:42:59.749Z,99565.61
2018-09-09T17:45:29.493Z,99565.09
2018-09-09T17:48:05.196Z,99565.63
2018-09-09T17:50:34.550Z,99582.02
2018-09-09T17:53:03.710Z,99579.17
2018-09-09T17:55:34.269Z,99584.42
2018-09-09T17:58:06.563Z,99584.09
2018-09-09T18:00:35.572Z,99585.77
2018-09-09T18:03:05.491Z,99583.91
2018-09-09T18:05:38.033Z,99588.32
2018-09-09T18:08:13.105Z,99587.64
2018-09-09T18:10:42.871Z,99592.86
2018-09-09T18:13:13.025Z,99590.65
2018-09-09T18:15:42.082Z,99596.58
2018-09-09T18:18:12.590Z,99601.62
2018-09-09T18:20:42.198Z,99606.88
2018-09-09T18:23:15.821Z,99606.36
2018-09-09T18:25:46.941Z,99609.77
2018-09-09T18:28:20.268Z,99611.29
2018-09-09T18:30:49.158Z,99609.30
2018-09-09T18:33:18.175Z,99612.16
2018-09-09T18:35:47.580Z,99610.30
2018-09-09T18:38:19.927Z,99610.98
2018-09-09T18:40:49.827Z,99616.74
2018-09-09T18:43:18.866Z,99602.86
2018-09-09T18:45:48.113Z,99621.45
2018-09-09T18:48:23.683Z,99614.86
2018-09-09T18:51:00.566Z,99618.06
2018-09-09T18:53:37.082Z,99615.38
2018-09-09T18:56:06.196Z,99619.59
2018-09-09T18:58:35.450Z,99614.69
2018-09-09T19:01:04.591Z,99615.36
2018-09-09T19:03:33.684Z,99625.84
2018-09-09T19:10:07.907Z,99630.70
2018-09-09T19:12:36.986Z,99623.30
2018-09-09T19:15:06.277Z,99620.74
2018-09-09T19:17:35.366Z,99627.50
2018-09-09T19:20:04.469Z,99624.10
2018-09-09T19:22:33.513Z,99625.97
2018-09-09T19:25:02.738Z,99619.89
2018-09-09T19:27:33.805Z,99626.13
2018-09-09T19:30:02.935Z,99622.77
2018-09-09T19:32:31.934Z,99628.66
2018-09-09T19:35:01.084Z,99626.80
2018-09-09T19:37:30.668Z,99626.80
2018-09-09T19:39:59.663Z,99629.50
2018-09-09T19:42:28.866Z,99623.26
2018-09-09T19:45:04.761Z,99628.16
2018-09-09T19:47:34.350Z,99626.47
2018-09-09T19:50:04.494Z,99629.34
2018-09-09T19:52:38.393Z,99627.15
2018-09-09T19:55:07.706Z,99627.80
2018-09-09T19:57:37.146Z,99630.63
2018-09-09T20:00:12.348Z,99629.79
2018-09-09T20:02:41.308Z,99627.57
2018-09-09T20:05:10.193Z,99631.62
2018-09-09T20:07:45.409Z,99632.09
2018-09-09T20:10:14.524Z,99634.79
2018-09-09T20:12:44.602Z,99631.58
2018-09-09T20:15:13.817Z,99640.82
2018-09-09T20:17:42.884Z,99636.06
2018-09-09T20:20:15.313Z,99641.63
2018-09-09T20:22:44.590Z,99641.78
2018-09-09T20:25:13.640Z,99629.61
2018-09-09T20:27:43.623Z,99639.39
2018-09-09T20:30:17.858Z,99634.16
2018-09-09T20:32:46.925Z,99632.98
2018-09-09T20:35:16.525Z,99643.59
2018-09-09T20:37:49.425Z,99642.41
2018-09-09T20:40:18.619Z,99640.69
2018-09-09T20:42:48.927Z,99639.29
2018-09-09T20:45:25.818Z,99644.34
2018-09-09T20:48:01.714Z,99640.92
2018-09-09T20:50:31.142Z,99644.41
2018-09-09T20:53:00.295Z,99649.95
2018-09-09T20:55:29.622Z,99640.47
2018-09-09T20:57:59.803Z,99651.08
2018-09-09T21:05:45.177Z,99662.39
2018-09-09T21:08:15.469Z,99656.55
2018-09-09T21:10:56.530Z,99653.80
2018-09-09T21:13:25.806Z,99657.16
2018-09-09T21:15:54.894Z,99656.14
2018-09-09T21:18:24.995Z,99661.84
2018-09-09T21:20:54.521Z,99663.54
2018-09-09T21:23:23.594Z,99659.78
2018-09-09T21:25:53.675Z,99659.60
2018-09-09T21:28:22.992Z,99657.73
2018-09-09T21:30:51.987Z,99654.48
2018-09-09T21:33:20.997Z,99659.01
2018-09-09T21:35:50.092Z,99657.34
2018-09-09T21:38:18.856Z,99651.61
2018-09-09T21:40:47.769Z,99655.12
2018-09-09T21:43:16.976Z,99656.63
2018-09-09T21:45:46.113Z,99659.61
2018-09-09T21:48:15.113Z,99660.83
2018-09-09T21:50:44.582Z,99669.66
2018-09-09T21:53:17.437Z,99663.59
2018-09-09T21:55:46.849Z,99658.21
2018-09-09T21:58:18.921Z,99659.31
2018-09-09T22:03:42.217Z,99660.83
2018-09-09T22:06:12.069Z,99662.86
2018-09-09T22:08:41.025Z,99670.59
2018-09-09T22:11:09.908Z,99666.00
2018-09-09T22:13:39.389Z,99664.15
2018-09-09T22:16:08.411Z,99667.13
2018-09-09T22:18:37.388Z,99662.96
2018-09-09T22:21:12.231Z,99663.43
2018-09-09T22:23:42.401Z,99663.43
2018-09-09T22:26:18.481Z,99669.47
2018-09-09T22:28:48.457Z,99668.45
2018-09-09T22:31:22.329Z,99668.52
2018-09-09T22:33:55.359Z,99664.66
2018-09-09T22:36:25.345Z,99669.17
2018-09-09T22:38:55.050Z,99664.50
2018-09-09T22:41:24.195Z,99664.82
2018-09-09T22:44:00.332Z,99666.23
2018-09-09T22:46:30.022Z,99658.44
2018-09-09T22:48:58.973Z,99668.20
2018-09-09T22:51:28.142Z,99667.70
2018-09-09T22:53:56.960Z,99669.77
2018-09-09T22:56:25.885Z,99677.84
2018-09-09T22:59:04.090Z,99671.64
2018-09-09T23:01:37.804Z,99669.95
2018-09-09T23:04:07.346Z,99674.83
2018-09-09T23:09:58.790Z,99674.70
2018-09-09T23:12:27.765Z,99680.53
2018-09-09T23:14:56.811Z,99674.99
2018-09-09T23:17:25.972Z,99667.89
2018-09-09T23:19:54.984Z,99667.20
2018-09-09T23:22:23.832Z,99664.32
2018-09-09T23:24:53.328Z,99663.59
2018-09-09T23:27:22.236Z,99668.29
2018-09-09T23:29:51.087Z,99661.88
2018-09-09T23:32:20.401Z,99672.23
2018-09-09T23:34:49.305Z,99669.00
2018-09-09T23:37:18.198Z,99670.34
2018-09-09T23:39:47.512Z,99667.16
2018-09-09T23:42:16.412Z,99665.31
2018-09-09T23:44:45.547Z,99667.81
2018-09-09T23:47:14.647Z,99666.76
2018-09-09T23:49:43.606Z,99671.11
2018-09-09T23:52:12.596Z,99666.81
2018-09-09T23:54:41.960Z,99669.76
2018-09-09T23:57:11.001Z,99671.11
2018-09-09T23:59:39.958Z,99671.80
